Time;durP1;ratioP1;P1;durP2;ratioP2;P2;SDS_P1;SDS_P2;PMS_P1;PMS_P2;Temp;Humidity;BMP_temperature;BMP_pressure;BME280_temperature;BME280_humidity;BME280_pressure;Samples;Min_cycle;Max_cycle;Signal;HPM_P1;HPM_P2
2021/03/29 00:01:29;;;;;;;18.63;5.85;;;3.80;58.10;;;;;;5009568;28;20041;-66
2021/03/29 00:03:55;;;;;;;12.75;5.38;;;3.80;58.00;;;;;;5010504;28;20033;-66
2021/03/29 00:06:22;;;;;;;;;;;3.70;57.90;;;;;;5011041;28;20513;-66
2021/03/29 00:08:50;;;;;;;14.48;5.07;;;3.80;58.00;;;;;;5010319;28;19916;-66
2021/03/29 00:11:17;;;;;;;16.95;4.50;;;3.80;57.70;;;;;;5010189;28;20040;-67
2021/03/29 00:13:43;;;;;;;11.23;4.00;;;3.80;57.50;;;;;;5025622;28;20084;-66
2021/03/29 00:16:11;;;;;;;13.30;5.53;;;3.80;57.30;;;;;;5010305;28;20049;-68
2021/03/29 00:18:37;;;;;;;14.80;5.50;;;3.80;57.70;;;;;;5010004;28;20096;-67
2021/03/29 00:21:07;;;;;;;14.75;4.53;;;3.90;57.70;;;;;;5010144;28;20026;-67
2021/03/29 00:23:35;;;;;;;11.50;3.78;;;3.80;57.70;;;;;;5009888;28;20088;-67
2021/03/29 00:26:03;;;;;;;12.23;3.55;;;3.80;57.60;;;;;;5010011;28;20036;-67
2021/03/29 00:28:28;;;;;;;9.75;3.08;;;3.80;57.80;;;;;;5010048;28;20029;-67
2021/03/29 00:30:54;;;;;;;11.82;4.78;;;3.80;57.80;;;;;;5009881;28;20029;-67
2021/03/29 00:33:21;;;;;;;;;;;3.80;57.80;;;;;;5010413;28;20037;-67
2021/03/29 00:35:48;;;;;;;;;;;3.80;57.80;;;;;;5010306;28;20445;-68
2021/03/29 00:38:16;;;;;;;12.10;4.05;;;3.80;58.10;;;;;;5009709;28;19928;-67
2021/03/29 00:40:58;;;;;;;11.20;3.30;;;3.80;58.00;;;;;;5009873;28;20030;-67
2021/03/29 00:43:30;;;;;;;8.13;1.40;;;3.80;58.10;;;;;;5009658;28;20030;-67
2021/03/29 00:45:57;;;;;;;10.57;1.80;;;3.80;58.30;;;;;;5009640;28;20061;-67
2021/03/29 00:48:25;;;;;;;4.53;1.33;;;3.80;58.40;;;;;;5009456;28;20041;-67
2021/03/29 00:51:01;;;;;;;5.47;1.35;;;3.80;58.30;;;;;;5009454;28;20055;-67
2021/03/29 00:53:27;;;;;;;8.82;2.88;;;3.90;58.40;;;;;;5009455;28;20045;-67
2021/03/29 00:55:53;;;;;;;5.45;1.77;;;3.90;58.50;;;;;;5009392;28;20088;-67
2021/03/29 00:58:25;;;;;;;9.00;2.15;;;3.80;58.50;;;;;;5008238;28;20034;-67
2021/03/29 01:01:00;;;;;;;8.88;1.75;;;3.80;59.00;;;;;;5009386;28;20026;-67
2021/03/29 01:03:29;;;;;;;9.73;1.73;;;3.80;59.10;;;;;;5009160;28;20026;-68
2021/03/29 01:06:00;;;;;;;9.07;1.83;;;3.80;59.30;;;;;;5009287;28;20057;-68
2021/03/29 01:08:27;;;;;;;7.78;1.42;;;3.80;59.20;;;;;;5009167;28;20042;-67
2021/03/29 01:10:55;;;;;;;4.53;1.23;;;3.80;59.50;;;;;;5009081;28;20117;-68
2021/03/29 01:13:22;;;;;;;10.82;1.77;;;3.80;59.70;;;;;;5007686;28;20042;-67
2021/03/29 01:15:50;;;;;;;4.50;1.05;;;3.70;59.80;;;;;;5009054;28;20026;-67
2021/03/29 01:18:18;;;;;;;7.43;1.27;;;3.70;60.20;;;;;;5008791;28;20149;-67
2021/03/29 01:20:53;;;;;;;6.40;1.55;;;3.70;60.50;;;;;;5008822;28;20076;-68
2021/03/29 01:23:20;;;;;;;8.25;1.73;;;3.70;60.40;;;;;;5007520;28;20022;-66
2021/03/29 01:25:51;;;;;;;8.68;1.75;;;3.70;60.40;;;;;;5008951;28;20022;-67
2021/03/29 01:28:19;;;;;;;5.72;1.50;;;3.70;60.70;;;;;;5008847;28;20038;-67
2021/03/29 01:30:46;;;;;;;7.63;1.60;;;3.70;60.80;;;;;;5008892;28;20053;-67
2021/03/29 01:33:12;;;;;;;5.97;1.90;;;3.60;60.70;;;;;;5008753;28;20545;-67
2021/03/29 01:35:39;;;;;;;;;;;3.70;60.70;;;;;;5009212;28;20044;-68
2021/03/29 01:38:06;;;;;;;10.07;3.25;;;3.60;60.70;;;;;;5008738;28;20394;-67
2021/03/29 01:40:38;;;;;;;9.43;2.60;;;3.70;60.60;;;;;;5008775;28;20034;-68
2021/03/29 01:43:08;;;;;;;15.60;4.93;;;3.70;60.80;;;;;;5023705;28;20034;-68
2021/03/29 01:45:36;;;;;;;10.85;2.83;;;3.70;60.80;;;;;;5008384;28;20391;-67
2021/03/29 01:48:03;;;;;;;7.75;3.30;;;3.70;60.90;;;;;;5008526;28;20053;-68
2021/03/29 01:50:31;;;;;;;8.20;2.65;;;3.70;61.00;;;;;;5008687;28;20022;-67
2021/03/29 01:52:58;;;;;;;7.65;1.98;;;3.70;61.10;;;;;;5008388;28;20112;-67
2021/03/29 01:55:25;;;;;;;8.27;1.85;;;3.70;61.30;;;;;;5008068;28;20022;-67
2021/03/29 01:57:51;;;;;;;9.80;2.40;;;3.70;61.60;;;;;;5008356;28;20030;-66
2021/03/29 02:00:52;;;;;;;10.15;1.77;;;3.70;61.80;;;;;;5008439;28;20572;-67
2021/03/29 02:03:19;;;;;;;8.10;1.88;;;3.80;62.20;;;;;;5005998;28;20038;-66
2021/03/29 02:05:45;;;;;;;8.77;1.45;;;3.80;62.20;;;;;;5008392;28;20030;-68
2021/03/29 02:08:11;;;;;;;7.68;1.80;;;3.90;62.00;;;;;;5008235;28;20065;-68
2021/03/29 02:10:39;;;;;;;6.43;1.55;;;3.90;61.90;;;;;;5008297;28;20037;-67
2021/03/29 02:13:07;;;;;;;6.10;2.15;;;4.00;62.00;;;;;;5008215;28;20062;-67
2021/03/29 02:15:33;;;;;;;8.48;2.22;;;4.00;61.70;;;;;;5008078;28;20029;-67
2021/03/29 02:18:00;;;;;;;;;;;4.10;61.50;;;;;;5008560;28;20050;-67
2021/03/29 02:20:34;;;;;;;10.52;3.55;;;4.10;61.40;;;;;;5008067;28;20428;-67
2021/03/29 02:23:02;;;;;;;13.18;3.58;;;4.10;61.30;;;;;;5007995;28;20042;-67
2021/03/29 02:25:30;;;;;;;10.40;3.90;;;4.10;61.00;;;;;;5007537;28;20450;-67
2021/03/29 02:27:58;;;;;;;9.43;3.38;;;4.10;61.00;;;;;;5008045;28;20040;-67
2021/03/29 02:30:27;;;;;;;12.63;3.28;;;4.10;61.10;;;;;;5023219;28;20669;-67
2021/03/29 02:32:54;;;;;;;14.80;2.28;;;4.10;61.00;;;;;;5007881;28;20033;-67
2021/03/29 02:35:23;;;;;;;5.28;1.65;;;4.10;60.90;;;;;;5007772;28;20033;-67
2021/03/29 02:37:55;;;;;;;7.10;1.75;;;4.10;60.90;;;;;;5008112;28;20507;-67
2021/03/29 02:40:22;;;;;;;6.72;2.35;;;4.00;60.80;;;;;;5007916;28;20033;-67
2021/03/29 02:42:49;;;;;;;11.88;1.70;;;4.00;60.80;;;;;;5007751;28;20108;-67
2021/03/29 02:45:18;;;;;;;8.23;2.13;;;4.00;60.90;;;;;;5007639;28;20080;-67
2021/03/29 02:47:45;;;;;;;7.70;1.75;;;4.10;60.90;;;;;;5007779;28;20574;-67
2021/03/29 02:50:12;;;;;;;4.97;1.58;;;4.10;61.20;;;;;;5007654;28;20030;-68
2021/03/29 02:52:40;;;;;;;13.90;1.77;;;4.10;61.30;;;;;;5007704;28;20044;-67
2021/03/29 02:55:08;;;;;;;6.05;1.45;;;4.10;61.50;;;;;;5007730;28;20092;-67
2021/03/29 02:57:38;;;;;;;20.15;2.05;;;4.10;61.60;;;;;;5007642;28;20161;-68
2021/03/29 03:00:17;;;;;;;11.55;2.50;;;4.10;62.00;;;;;;5007730;28;20030;-68
2021/03/29 03:02:44;;;;;;;7.30;1.80;;;4.00;62.30;;;;;;5006620;28;20049;-67
2021/03/29 03:05:10;;;;;;;7.15;1.48;;;4.00;62.40;;;;;;5007790;28;20022;-68
2021/03/29 03:07:37;;;;;;;8.02;1.60;;;4.00;62.90;;;;;;5007416;28;20554;-68
2021/03/29 03:10:07;;;;;;;11.77;2.38;;;4.00;63.20;;;;;;5007564;28;20422;-67
2021/03/29 03:12:34;;;;;;;8.35;1.52;;;4.00;63.70;;;;;;5007567;28;20499;-67
2021/03/29 03:15:00;;;;;;;2.65;1.20;;;4.00;63.80;;;;;;5022670;28;20030;-66
2021/03/29 03:17:25;;;;;;;4.97;1.52;;;4.00;64.20;;;;;;5007246;28;20530;-67
2021/03/29 03:19:51;;;;;;;7.60;3.08;;;4.10;64.30;;;;;;5022693;28;20398;-67
2021/03/29 03:22:17;;;;;;;18.45;6.05;;;4.00;64.70;;;;;;5007430;28;20497;-67
2021/03/29 03:24:43;;;;;;;14.32;5.25;;;4.10;65.40;;;;;;5007376;28;20066;-67
2021/03/29 03:27:10;;;;;;;19.10;7.25;;;4.10;65.70;;;;;;5007300;28;20029;-68
2021/03/29 03:29:42;;;;;;;17.00;6.82;;;4.00;66.20;;;;;;5007162;28;20074;-68
2021/03/29 03:32:16;;;;;;;27.95;10.98;;;4.10;66.90;;;;;;5007403;28;20414;-67
2021/03/29 03:34:42;;;;;;;25.75;12.50;;;4.10;67.40;;;;;;5007645;28;20042;-68
2021/03/29 03:37:14;;;;;;;27.35;11.38;;;4.10;67.90;;;;;;5008947;28;20029;-67
2021/03/29 03:39:42;;;;;;;27.38;10.55;;;4.10;67.80;;;;;;5009603;28;20037;-67
2021/03/29 03:42:09;;;;;;;26.10;10.77;;;4.10;67.90;;;;;;5010901;28;20434;-67
2021/03/29 03:44:36;;;;;;;20.80;9.07;;;4.00;68.10;;;;;;5010882;28;20160;-67
2021/03/29 03:47:03;;;;;;;16.65;6.72;;;4.00;68.30;;;;;;5010776;28;20098;-67
2021/03/29 03:49:30;;;;;;;13.98;5.75;;;4.00;68.20;;;;;;5010651;28;20049;-68
2021/03/29 03:51:57;;;;;;;12.75;5.85;;;4.00;68.50;;;;;;5011047;28;20025;-67
2021/03/29 03:54:23;;;;;;;14.25;6.18;;;3.90;69.10;;;;;;5010701;28;20033;-67
2021/03/29 03:56:49;;;;;;;16.48;6.93;;;3.90;69.20;;;;;;5010467;28;20022;-67
2021/03/29 03:59:15;;;;;;;;;;;3.90;69.80;;;;;;5010914;28;20410;-67
2021/03/29 04:02:04;;;;;;;19.38;6.40;;;3.90;69.90;;;;;;5009212;28;19924;-68
2021/03/29 04:04:30;;;;;;;18.85;6.55;;;3.90;69.60;;;;;;5010469;28;20026;-67
2021/03/29 04:06:57;;;;;;;19.63;7.90;;;3.90;69.60;;;;;;5010438;28;20098;-67
2021/03/29 04:09:31;;;;;;;15.93;6.68;;;3.90;70.00;;;;;;5025204;28;20050;-67
2021/03/29 04:11:57;;;;;;;17.23;5.55;;;3.90;70.60;;;;;;5009028;28;20030;-68
2021/03/29 04:14:22;;;;;;;;;;;3.90;70.40;;;;;;5010576;28;20042;-66
2021/03/29 04:16:48;;;;;;;9.63;4.15;;;3.90;71.20;;;;;;5025335;28;20129;-66
2021/03/29 04:19:13;;;;;;;10.77;3.70;;;3.90;71.00;;;;;;5009981;28;20037;-66
2021/03/29 04:21:39;;;;;;;;;;;3.90;71.00;;;;;;5010517;28;20022;-68
2021/03/29 04:24:05;;;;;;;10.60;4.07;;;3.90;71.00;;;;;;5010035;28;19952;-67
2021/03/29 04:26:31;;;;;;;;;;;3.80;71.20;;;;;;5010573;28;20375;-67
2021/03/29 04:28:56;;;;;;;12.13;4.35;;;3.90;71.50;;;;;;5009944;28;19918;-67
2021/03/29 04:31:22;;;;;;;8.27;3.83;;;3.90;71.30;;;;;;5009839;28;20029;-67
2021/03/29 04:33:47;;;;;;;;;;;3.90;71.00;;;;;;5009134;28;20042;-66
2021/03/29 04:36:13;;;;;;;18.85;4.30;;;3.90;71.50;;;;;;5009394;28;20259;-67
2021/03/29 04:38:38;;;;;;;12.93;3.38;;;3.90;71.10;;;;;;5009834;28;20121;-66
2021/03/29 04:41:05;;;;;;;9.15;3.90;;;3.90;71.40;;;;;;5008999;28;20070;-66
2021/03/29 04:43:31;;;;;;;7.30;3.17;;;3.90;71.70;;;;;;5009012;28;20026;-68
2021/03/29 04:45:57;;;;;;;6.25;2.25;;;3.90;71.10;;;;;;5009354;28;20053;-67
2021/03/29 04:48:22;;;;;;;9.48;3.13;;;3.90;70.90;;;;;;5009002;28;20503;-67
2021/03/29 04:50:48;;;;;;;9.02;2.78;;;3.90;70.60;;;;;;5009247;28;20022;-66
2021/03/29 04:53:15;;;;;;;9.90;3.88;;;3.90;70.50;;;;;;5008247;28;20061;-69
2021/03/29 04:55:40;;;;;;;8.10;3.10;;;4.00;70.70;;;;;;5009175;28;20505;-68
2021/03/29 04:58:06;;;;;;;10.57;2.38;;;4.10;70.60;;;;;;5023788;28;20038;-68
2021/03/29 05:00:32;;;;;;;;;;;4.20;70.20;;;;;;5009252;28;20034;-69
2021/03/29 05:02:57;;;;;;;11.27;3.25;;;4.20;70.50;;;;;;5008923;28;19923;-67
2021/03/29 05:05:23;;;;;;;;;;;4.40;70.30;;;;;;5008148;28;20075;-67
2021/03/29 05:07:48;;;;;;;12.63;3.70;;;4.50;70.20;;;;;;5007643;28;19918;-68
2021/03/29 05:10:14;;;;;;;;;;;4.60;69.90;;;;;;5007762;28;20118;-68
2021/03/29 05:12:40;;;;;;;18.40;7.18;;;4.80;69.70;;;;;;5007538;28;19910;-69
2021/03/29 05:15:06;;;;;;;;;;;5.00;70.20;;;;;;5024274;28;20057;-68
2021/03/29 05:17:32;;;;;;;39.10;12.98;;;5.30;70.20;;;;;;5007064;28;20024;-68
2021/03/29 05:19:58;;;;;;;37.55;14.77;;;5.40;69.30;;;;;;5009001;28;20121;-68
2021/03/29 05:22:23;;;;;;;;;;;5.70;68.40;;;;;;5009307;28;20044;-68
2021/03/29 05:24:49;;;;;;;28.42;10.88;;;5.90;67.30;;;;;;5008595;28;19950;-68
2021/03/29 05:27:14;;;;;;;19.17;7.55;;;6.10;66.40;;;;;;5007862;28;20422;-67
2021/03/29 05:29:43;;;;;;;23.40;5.65;;;6.30;65.50;;;;;;5007931;28;20092;-67
2021/03/29 05:32:12;;;;;;;9.70;3.42;;;6.40;64.90;;;;;;5012092;28;20026;-67
2021/03/29 05:34:37;;;;;;;10.07;3.05;;;6.60;63.80;;;;;;5014059;28;20033;-68
2021/03/29 05:37:03;;;;;;;9.27;2.53;;;7.00;63.10;;;;;;5008511;28;20041;-68
2021/03/29 05:39:29;;;;;;;16.58;3.03;;;7.60;61.50;;;;;;5008416;28;20033;-68
2021/03/29 05:41:55;;;;;;;7.35;2.10;;;8.20;60.00;;;;;;5008708;28;20022;-68
2021/03/29 05:44:21;;;;;;;;;;;8.80;56.70;;;;;;5009015;28;20026;-65
2021/03/29 05:46:46;;;;;;;5.90;2.85;;;9.40;53.90;;;;;;5008453;28;19959;-66
2021/03/29 05:49:12;;;;;;;;;;;10.20;53.50;;;;;;5008941;28;20069;-66
2021/03/29 05:51:39;;;;;;;7.13;1.98;;;10.60;49.60;;;;;;5008357;28;19955;-67
2021/03/29 05:54:06;;;;;;;13.95;6.03;;;11.00;49.20;;;;;;5006992;28;20049;-66
2021/03/29 05:56:36;;;;;;;14.70;6.60;;;11.10;47.90;;;;;;5008468;28;20026;-66
2021/03/29 05:59:22;;;;;;;10.88;4.25;;;10.90;47.30;;;;;;5007793;28;20037;-66
2021/03/29 06:01:48;;;;;;;11.38;3.88;;;10.70;48.20;;;;;;5006994;28;20403;-67
2021/03/29 06:04:16;;;;;;;11.07;4.45;;;10.60;48.70;;;;;;5009943;28;20108;-66
2021/03/29 06:06:42;;;;;;;15.52;4.57;;;10.50;49.50;;;;;;5027841;28;20526;-66
2021/03/29 06:09:09;;;;;;;17.90;7.32;;;10.40;49.80;;;;;;5027063;28;20055;-67
2021/03/29 06:11:40;;;;;;;17.73;9.05;;;10.50;50.20;;;;;;5026885;28;20035;-67
2021/03/29 06:14:20;;;;;;;12.48;7.68;;;10.60;49.80;;;;;;5026864;28;20536;-66
2021/03/29 06:17:07;;;;;;;17.40;7.22;;;10.90;49.00;;;;;;5026896;28;20075;-66
2021/03/29 06:19:44;;;;;;;10.80;4.72;;;11.30;47.70;;;;;;5027605;28;20645;-67
2021/03/29 06:22:10;;;;;;;9.30;3.47;;;11.80;46.50;;;;;;5027646;28;20025;-67
2021/03/29 06:24:56;;;;;;;;;;;12.30;44.70;;;;;;5028281;28;20052;-66
2021/03/29 06:27:24;;;;;;;7.85;2.70;;;12.90;43.90;;;;;;5027544;28;20008;-67
2021/03/29 06:29:50;;;;;;;8.73;2.72;;;13.30;42.70;;;;;;5026597;28;20116;-67
2021/03/29 06:32:20;;;;;;;7.57;2.30;;;13.70;41.80;;;;;;5027424;28;20482;-67
2021/03/29 06:34:46;;;;;;;5.22;1.92;;;13.80;41.60;;;;;;5028030;28;20033;-67
2021/03/29 06:37:12;;;;;;;6.00;2.03;;;14.10;41.20;;;;;;5027532;28;20088;-66
2021/03/29 06:39:40;;;;;;;10.98;2.50;;;14.40;39.70;;;;;;5027557;28;20029;-68
2021/03/29 06:42:07;;;;;;;11.88;2.08;;;15.00;38.50;;;;;;5027615;28;20504;-67
2021/03/29 06:44:35;;;;;;;9.27;2.60;;;15.20;37.30;;;;;;5027311;28;20026;-67
2021/03/29 06:47:13;;;;;;;10.10;4.13;;;15.70;36.30;;;;;;5027483;28;20041;-67
2021/03/29 06:49:48;;;;;;;9.73;3.55;;;15.60;35.50;;;;;;5027313;28;20157;-67
2021/03/29 06:52:30;;;;;;;8.73;3.60;;;15.70;35.10;;;;;;5027516;28;20017;-67
2021/03/29 06:55:33;;;;;;;11.65;3.33;;;16.00;34.80;;;;;;5027506;28;20065;-68
2021/03/29 06:57:59;;;;;;;17.20;4.63;;;16.00;34.80;;;;;;5026169;28;20383;-67
2021/03/29 07:00:31;;;;;;;24.95;5.65;;;16.10;34.10;;;;;;5027671;28;20048;-67
2021/03/29 07:03:03;;;;;;;15.40;4.90;;;16.10;33.20;;;;;;5026048;28;20382;-67
2021/03/29 07:05:30;;;;;;;21.50;4.07;;;16.00;33.70;;;;;;5027161;28;20021;-66
2021/03/29 07:08:01;;;;;;;14.13;4.50;;;15.80;34.20;;;;;;5027134;28;20051;-66
2021/03/29 07:10:26;;;;;;;13.25;5.03;;;15.40;34.50;;;;;;5027949;28;20025;-67
2021/03/29 07:12:53;;;;;;;17.60;5.90;;;15.10;34.70;;;;;;5031020;28;20442;-67
2021/03/29 07:15:20;;;;;;;14.23;5.47;;;14.90;34.80;;;;;;5029819;28;20037;-66
2021/03/29 07:17:49;;;;;;;54.70;7.55;;;15.00;34.60;;;;;;5029589;28;20054;-67
2021/03/29 07:20:24;;;;;;;25.45;4.90;;;15.60;34.00;;;;;;5031144;28;20402;-67
2021/03/29 07:22:50;;;;;;;16.95;3.22;;;16.40;32.30;;;;;;5029534;28;20064;-67
2021/03/29 07:25:17;;;;;;;11.27;3.45;;;17.00;30.00;;;;;;5030884;28;20025;-68
2021/03/29 07:27:48;;;;;;;11.02;4.30;;;17.00;29.10;;;;;;5030946;28;20096;-67
2021/03/29 07:30:16;;;;;;;17.92;3.42;;;16.80;28.90;;;;;;5030834;28;20079;-67
2021/03/29 07:32:52;;;;;;;7.90;2.88;;;16.80;29.30;;;;;;5030631;28;20071;-67
2021/03/29 07:35:19;;;;;;;9.38;3.60;;;17.30;29.50;;;;;;5030579;28;20029;-67
2021/03/29 07:37:57;;;;;;;10.13;2.70;;;17.60;29.10;;;;;;5030787;28;20021;-68
2021/03/29 07:40:32;;;;;;;7.97;3.00;;;17.90;28.50;;;;;;5030749;28;20030;-67
2021/03/29 07:43:28;;;;;;;10.90;3.05;;;18.30;28.20;;;;;;5030569;28;20025;-67
2021/03/29 07:46:05;;;;;;;17.80;3.50;;;18.50;27.60;;;;;;5025937;28;20033;-68
2021/03/29 07:48:41;;;;;;;10.10;3.28;;;18.60;27.70;;;;;;5030491;28;20116;-68
2021/03/29 07:51:13;;;;;;;6.30;3.50;;;18.90;27.70;;;;;;5030526;28;20033;-68
2021/03/29 07:53:40;;;;;;;14.77;3.40;;;19.00;27.40;;;;;;5028813;28;20029;-67
2021/03/29 07:56:06;;;;;;;12.65;4.35;;;18.60;26.90;;;;;;5030357;28;20071;-67
2021/03/29 07:58:43;;;;;;;14.32;3.20;;;18.90;27.20;;;;;;5029445;28;20514;-69
2021/03/29 08:01:09;;;;;;;11.68;3.03;;;19.00;27.40;;;;;;5030259;28;20457;-68
2021/03/29 08:03:38;;;;;;;10.30;3.78;;;19.50;27.10;;;;;;5029936;28;20029;-67
2021/03/29 08:06:04;;;;;;;12.45;3.17;;;19.30;26.70;;;;;;5028527;28;20535;-68
2021/03/29 08:08:36;;;;;;;12.05;2.75;;;18.80;28.00;;;;;;5029898;28;20132;-68
2021/03/29 08:11:05;;;;;;;8.32;3.42;;;18.60;28.00;;;;;;5028435;28;20030;-67
2021/03/29 08:13:42;;;;;;;7.05;3.10;;;18.70;28.20;;;;;;5029792;28;20030;-68
2021/03/29 08:16:12;;;;;;;9.82;3.15;;;19.10;28.20;;;;;;5030066;28;20063;-67
2021/03/29 08:19:12;;;;;;;7.40;2.67;;;19.20;28.00;;;;;;5028600;28;20053;-67
2021/03/29 08:21:42;;;;;;;12.85;3.78;;;19.30;27.80;;;;;;5029821;28;20021;-67
2021/03/29 08:24:16;;;;;;;12.05;3.20;;;19.00;27.40;;;;;;5028039;28;20033;-67
2021/03/29 08:26:42;;;;;;;8.73;2.95;;;18.90;28.00;;;;;;5029818;28;20477;-66
2021/03/29 08:29:10;;;;;;;12.50;3.75;;;18.70;28.00;;;;;;5029292;28;20046;-68
2021/03/29 08:32:05;;;;;;;10.07;3.55;;;18.60;28.30;;;;;;5027915;28;20029;-67
2021/03/29 08:34:34;;;;;;;8.32;3.17;;;18.30;28.70;;;;;;5029797;28;20029;-67
2021/03/29 08:37:05;;;;;;;8.00;3.58;;;18.20;28.60;;;;;;5029647;28;20018;-67
2021/03/29 08:39:34;;;;;;;8.10;3.40;;;18.10;28.70;;;;;;5029469;28;20035;-67
2021/03/29 08:42:00;;;;;;;6.07;2.53;;;17.90;29.20;;;;;;5029504;28;20490;-67
2021/03/29 08:44:27;;;;;;;6.50;2.70;;;17.80;29.40;;;;;;5029623;28;20052;-67
2021/03/29 08:46:55;;;;;;;11.65;3.00;;;17.80;29.50;;;;;;5029471;28;20037;-67
2021/03/29 08:49:21;;;;;;;9.02;3.25;;;18.10;29.80;;;;;;5029156;28;20626;-68
2021/03/29 08:51:48;;;;;;;6.00;3.00;;;18.50;28.90;;;;;;5029456;28;20025;-67
2021/03/29 08:54:15;;;;;;;8.45;2.75;;;18.70;28.60;;;;;;5029226;28;20045;-67
2021/03/29 08:56:43;;;;;;;7.90;3.15;;;18.60;28.40;;;;;;5029454;28;20083;-67
2021/03/29 08:59:09;;;;;;;6.70;3.10;;;18.70;28.50;;;;;;5029499;28;20038;-67
2021/03/29 09:01:35;;;;;;;9.90;2.85;;;18.90;28.30;;;;;;5029001;28;20022;-67
2021/03/29 09:04:06;;;;;;;13.65;3.33;;;18.80;28.40;;;;;;5029186;28;20448;-67
2021/03/29 09:06:32;;;;;;;9.63;2.78;;;18.60;29.40;;;;;;5029182;28;20044;-66
2021/03/29 09:09:09;;;;;;;9.60;2.33;;;18.40;29.40;;;;;;5027607;28;20501;-67
2021/03/29 09:11:44;;;;;;;8.85;3.22;;;18.60;29.30;;;;;;5028869;28;20474;-67
2021/03/29 09:14:10;;;;;;;9.30;3.72;;;18.90;28.90;;;;;;5029081;28;20040;-67
2021/03/29 09:16:37;;;;;;;9.60;3.25;;;19.10;28.60;;;;;;5028979;28;20068;-67
2021/03/29 09:19:17;;;;;;;13.90;3.40;;;19.10;28.30;;;;;;5028884;28;20036;-68
2021/03/29 09:21:44;;;;;;;12.85;3.03;;;18.90;28.50;;;;;;5027351;28;20029;-67
2021/03/29 09:24:21;;;;;;;12.85;3.00;;;18.80;28.90;;;;;;5028676;28;20022;-66
2021/03/29 09:27:01;;;;;;;11.85;2.80;;;18.80;28.60;;;;;;5028718;28;20060;-67
2021/03/29 09:29:32;;;;;;;9.88;2.75;;;18.70;28.80;;;;;;5008718;28;20038;-67
2021/03/29 09:32:08;;;;;;;10.30;2.85;;;18.50;30.00;;;;;;5009015;28;20510;-67
2021/03/29 09:34:35;;;;;;;8.68;3.05;;;18.60;29.00;;;;;;5006638;28;20502;-67
2021/03/29 09:37:01;;;;;;;6.70;2.78;;;18.40;29.30;;;;;;5007438;28;20716;-67
2021/03/29 09:39:29;;;;;;;3.83;2.13;;;18.60;29.80;;;;;;5008474;28;20040;-67
2021/03/29 09:41:55;;;;;;;9.02;2.47;;;18.70;29.00;;;;;;5008613;28;20030;-67
2021/03/29 09:44:28;;;;;;;8.88;2.05;;;18.60;29.40;;;;;;5007112;28;20419;-67
2021/03/29 09:46:56;;;;;;;6.10;1.80;;;18.70;29.20;;;;;;5008600;28;20088;-67
2021/03/29 09:49:22;;;;;;;8.70;2.10;;;18.90;30.00;;;;;;5008056;28;20430;-67
2021/03/29 09:51:50;;;;;;;8.80;2.45;;;19.60;29.50;;;;;;5008414;28;20022;-68
2021/03/29 09:54:26;;;;;;;8.13;2.65;;;20.10;28.70;;;;;;5007065;28;20057;-68
2021/03/29 09:56:53;;;;;;;9.73;2.43;;;20.50;27.80;;;;;;5008458;28;20123;-68
2021/03/29 09:59:29;;;;;;;7.30;2.45;;;20.50;27.90;;;;;;5006959;28;20719;-67
2021/03/29 10:01:56;;;;;;;5.20;2.20;;;20.30;27.90;;;;;;5008389;28;20029;-68
2021/03/29 10:04:23;;;;;;;6.15;1.83;;;20.10;28.10;;;;;;5008355;28;20032;-67
2021/03/29 10:06:51;;;;;;;4.97;1.67;;;19.90;28.70;;;;;;5008228;28;20045;-67
2021/03/29 10:09:31;;;;;;;6.57;1.88;;;20.10;28.40;;;;;;5006662;28;20034;-67
2021/03/29 10:11:58;;;;;;;6.55;2.53;;;20.40;27.60;;;;;;5008184;28;20030;-67
2021/03/29 10:14:38;;;;;;;4.05;1.45;;;20.80;27.80;;;;;;5006848;28;20449;-68
2021/03/29 10:17:20;;;;;;;5.90;1.63;;;21.60;26.60;;;;;;5008167;28;20534;-68
2021/03/29 10:19:47;;;;;;;5.45;1.73;;;22.20;25.60;;;;;;5008108;28;20585;-67
2021/03/29 10:22:18;;;;;;;5.05;1.58;;;22.70;25.50;;;;;;5007982;28;20022;-67
2021/03/29 10:25:04;;;;;;;6.38;1.98;;;23.40;24.60;;;;;;5007969;28;20038;-67
2021/03/29 10:27:45;;;;;;;5.72;1.77;;;23.50;23.80;;;;;;5007829;28;20038;-68
2021/03/29 10:30:21;;;;;;;7.32;1.50;;;22.70;23.70;;;;;;5007978;28;20046;-67
2021/03/29 10:32:47;;;;;;;;;;;22.00;24.70;;;;;;5008249;28;20025;-67
2021/03/29 10:35:13;;;;;;;5.50;1.38;;;21.50;25.80;;;;;;5007824;28;19913;-66
2021/03/29 10:37:39;;;;;;;6.90;1.33;;;21.10;26.10;;;;;;5007885;28;20060;-67
2021/03/29 10:40:06;;;;;;;6.53;1.40;;;20.70;26.50;;;;;;5006511;28;20034;-67
2021/03/29 10:42:35;;;;;;;4.88;1.13;;;20.50;26.80;;;;;;5007865;28;20112;-67
2021/03/29 10:45:03;;;;;;;5.25;1.30;;;20.20;26.90;;;;;;5006543;28;20575;-68
2021/03/29 10:47:28;;;;;;;9.55;1.33;;;20.10;26.80;;;;;;5011594;28;20034;-67
2021/03/29 10:49:54;;;;;;;5.57;1.80;;;19.60;27.80;;;;;;5011801;28;20026;-67
2021/03/29 10:52:21;;;;;;;4.68;1.48;;;19.40;27.90;;;;;;5011804;28;20044;-66
2021/03/29 10:54:47;;;;;;;6.97;1.75;;;19.00;28.10;;;;;;5011782;28;20045;-66
2021/03/29 10:57:13;;;;;;;6.60;2.35;;;18.50;28.40;;;;;;5011554;28;20411;-67
2021/03/29 10:59:38;;;;;;;7.60;2.35;;;18.40;28.80;;;;;;5011548;28;20030;-67
2021/03/29 11:02:04;;;;;;;6.22;1.42;;;18.30;28.70;;;;;;5011658;28;20029;-67
2021/03/29 11:04:30;;;;;;;8.80;2.45;;;18.10;29.70;;;;;;5011718;28;20510;-67
2021/03/29 11:06:56;;;;;;;6.53;1.30;;;18.10;30.00;;;;;;5011503;28;20057;-66
2021/03/29 11:09:22;;;;;;;6.28;1.27;;;18.10;30.20;;;;;;5011265;28;20037;-67
2021/03/29 11:11:48;;;;;;;8.50;1.70;;;18.10;30.50;;;;;;5011432;28;20057;-68
2021/03/29 11:14:14;;;;;;;8.32;2.05;;;18.30;30.60;;;;;;5011421;28;20475;-66
2021/03/29 11:16:40;;;;;;;6.00;1.70;;;18.50;30.70;;;;;;5010035;28;20018;-66
2021/03/29 11:19:06;;;;;;;9.80;1.80;;;18.50;30.30;;;;;;5011603;28;20446;-67
2021/03/29 11:21:33;;;;;;;5.03;1.75;;;18.60;30.40;;;;;;5011072;28;20109;-67
2021/03/29 11:23:59;;;;;;;7.68;1.48;;;18.60;30.00;;;;;;5011258;28;20536;-67
2021/03/29 11:26:27;;;;;;;3.97;1.10;;;18.50;30.00;;;;;;5011108;28;20105;-67
2021/03/29 11:28:52;;;;;;;4.45;1.35;;;18.50;29.70;;;;;;5011195;28;20067;-67
2021/03/29 11:31:20;;;;;;;9.85;2.03;;;18.50;30.90;;;;;;5011610;28;20445;-66
2021/03/29 11:33:46;;;;;;;7.82;1.50;;;18.40;30.00;;;;;;5029829;28;20486;-67
2021/03/29 11:36:11;;;;;;;9.63;1.75;;;18.40;30.10;;;;;;5030042;28;20080;-67
2021/03/29 11:38:38;;;;;;;5.85;1.10;;;18.40;30.20;;;;;;5029634;28;20029;-66
2021/03/29 11:41:04;;;;;;;7.15;2.42;;;18.20;30.80;;;;;;5028253;28;20448;-66
2021/03/29 11:43:30;;;;;;;6.43;1.65;;;18.20;30.80;;;;;;5029950;28;20025;-66
2021/03/29 11:45:56;;;;;;;13.18;1.88;;;18.20;30.60;;;;;;5029796;28;20112;-67
2021/03/29 11:48:21;;;;;;;5.75;1.23;;;18.30;30.30;;;;;;5029471;28;20501;-67
2021/03/29 11:50:47;;;;;;;6.25;1.30;;;18.40;30.40;;;;;;5027785;28;20104;-67
2021/03/29 11:53:13;;;;;;;6.18;1.67;;;18.50;30.50;;;;;;5029361;28;20037;-66
2021/03/29 11:55:39;;;;;;;7.32;1.77;;;18.80;30.00;;;;;;5030489;28;20486;-67
2021/03/29 11:58:04;;;;;;;6.35;1.60;;;18.80;29.50;;;;;;5029288;28;20041;-67
2021/03/29 12:00:32;;;;;;;7.45;1.90;;;18.60;29.10;;;;;;5030186;28;20041;-66
2021/03/29 12:05:32;;;;;;;5.32;1.70;;;18.40;28.80;;;;;;5028742;28;20854;-66
2021/03/29 12:13:37;;;;;;;4.07;1.50;;;17.70;30.60;;;;;;5026730;28;20484;-67
2021/03/29 12:16:04;;;;;;;12.18;1.20;;;17.80;30.90;;;;;;5028939;28;20117;-67
2021/03/29 12:18:36;;;;;;;6.57;1.05;;;18.10;31.00;;;;;;5029782;28;20439;-66
2021/03/29 12:21:03;;;;;;;5.13;0.93;;;18.40;31.00;;;;;;5029147;28;20032;-67
2021/03/29 12:23:31;;;;;;;8.70;1.20;;;18.80;30.20;;;;;;5028524;28;20033;-67
2021/03/29 12:25:58;;;;;;;4.03;0.82;;;19.00;29.50;;;;;;5029906;28;20021;-67
2021/03/29 12:28:28;;;;;;;6.38;1.33;;;19.00;29.30;;;;;;5029827;28;20045;-66
2021/03/29 12:30:56;;;;;;;6.70;1.17;;;18.70;29.10;;;;;;5029664;28;20052;-68
2021/03/29 12:33:22;;;;;;;4.90;1.08;;;18.80;29.20;;;;;;5029535;28;20057;-67
2021/03/29 12:35:49;;;;;;;6.68;1.67;;;18.90;29.10;;;;;;5029302;28;20032;-67
2021/03/29 12:38:15;;;;;;;3.47;1.05;;;19.10;28.80;;;;;;5029469;28;20033;-67
2021/03/29 12:40:44;;;;;;;5.15;1.05;;;19.00;28.60;;;;;;5029196;28;20560;-66
2021/03/29 12:43:17;;;;;;;5.65;1.92;;;19.00;28.70;;;;;;5027887;28;20053;-67
2021/03/29 12:45:45;;;;;;;4.88;1.13;;;18.90;28.90;;;;;;5027920;28;20056;-66
2021/03/29 12:48:12;;;;;;;4.43;1.27;;;18.90;28.90;;;;;;5029037;28;20040;-67
2021/03/29 12:50:38;;;;;;;6.60;1.80;;;18.90;28.90;;;;;;5023576;28;20032;-67
2021/03/29 12:53:04;;;;;;;8.95;2.17;;;18.70;29.10;;;;;;5029272;28;20053;-67
2021/03/29 12:55:30;;;;;;;5.72;1.85;;;18.70;29.10;;;;;;5029265;28;20071;-67
2021/03/29 12:57:58;;;;;;;5.35;1.10;;;18.70;29.00;;;;;;5029366;28;20053;-67
2021/03/29 13:00:26;;;;;;;5.15;1.75;;;18.60;28.70;;;;;;5029311;28;20033;-67
2021/03/29 13:02:55;;;;;;;7.85;2.10;;;18.60;29.40;;;;;;5028982;28;20025;-68
2021/03/29 13:08:13;;;;;;;13.52;1.13;;;19.00;28.60;;;;;;5015372;28;20045;-67
2021/03/29 13:13:09;;;;;;;6.03;1.23;;;18.80;29.10;;;;;;5028001;28;20017;-67
2021/03/29 13:15:35;;;;;;;3.92;0.70;;;18.80;28.90;;;;;;5028801;28;20132;-66